Time;durP1;ratioP1;P1;durP2;ratioP2;P2;SDS_P1;SDS_P2;PMS_P1;PMS_P2;Temp;Humidity;BMP_temperature;BMP_pressure;BME280_temperature;BME280_humidity;BME280_pressure;Samples;Min_cycle;Max_cycle;Signal;HPM_P1;HPM_P2
2022/10/25 00:02:24;;;;;;;2.77;1.32;;;15.90;98.50;;;;;;934198;149;27338;-77
2022/10/25 00:04:51;;;;;;;3.45;0.90;;;15.80;98.60;;;;;;951056;146;27323;-76
2022/10/25 00:07:17;;;;;;;1.42;1.32;;;15.80;98.40;;;;;;949828;146;27483;-76
2022/10/25 00:09:44;;;;;;;3.12;1.10;;;15.80;98.50;;;;;;950523;146;27363;-76
2022/10/25 00:12:10;;;;;;;4.22;1.27;;;15.80;98.60;;;;;;951453;146;27266;-77
2022/10/25 00:14:37;;;;;;;3.60;1.10;;;15.80;98.70;;;;;;941112;150;27336;-77
2022/10/25 00:17:04;;;;;;;3.05;1.07;;;15.70;98.70;;;;;;934427;149;27474;-78
2022/10/25 00:19:30;;;;;;;1.85;1.15;;;15.70;98.80;;;;;;950148;146;27404;-77
2022/10/25 00:21:57;;;;;;;1.70;1.00;;;15.70;98.80;;;;;;950554;146;27416;-77
2022/10/25 00:24:23;;;;;;;1.22;0.90;;;15.70;98.90;;;;;;950860;146;27315;-76
2022/10/25 00:26:50;;;;;;;1.05;0.78;;;15.70;98.90;;;;;;949916;146;27331;-77
2022/10/25 00:29:17;;;;;;;2.85;0.90;;;15.70;98.90;;;;;;950415;146;27318;-78
2022/10/25 00:31:43;;;;;;;2.22;0.82;;;15.70;98.90;;;;;;952042;146;27379;-76
2022/10/25 00:34:10;;;;;;;1.57;0.98;;;15.70;98.90;;;;;;953570;146;27443;-77
2022/10/25 00:36:36;;;;;;;1.85;0.80;;;15.70;99.00;;;;;;949581;146;27402;-77
2022/10/25 00:39:03;;;;;;;1.12;1.00;;;15.70;99.10;;;;;;952082;146;27480;-77
2022/10/25 00:41:29;;;;;;;2.00;1.00;;;15.60;99.10;;;;;;952348;146;27677;-78
2022/10/25 00:43:56;;;;;;;3.47;1.02;;;15.60;99.10;;;;;;950820;146;27415;-77
2022/10/25 00:46:28;;;;;;;4.58;1.22;;;15.60;99.10;;;;;;947259;146;27379;-77
2022/10/25 00:49:10;;;;;;;1.85;0.65;;;15.60;99.20;;;;;;950916;146;27429;-77
2022/10/25 00:51:37;;;;;;;3.37;1.07;;;15.60;99.30;;;;;;951910;146;27457;-77
2022/10/25 00:54:03;;;;;;;2.62;1.30;;;15.60;99.20;;;;;;948392;146;27371;-78
2022/10/25 00:56:30;;;;;;;1.72;1.00;;;15.60;99.30;;;;;;949474;146;27346;-77
2022/10/25 00:58:56;;;;;;;0.82;0.78;;;15.60;99.30;;;;;;949441;146;27317;-77
2022/10/25 01:01:23;;;;;;;3.22;1.07;;;15.60;99.30;;;;;;952316;146;27342;-77
2022/10/25 01:03:50;;;;;;;3.80;1.17;;;15.60;99.40;;;;;;950693;147;27335;-77
2022/10/25 01:06:25;;;;;;;1.95;0.70;;;15.60;99.40;;;;;;949433;146;27408;-77
2022/10/25 01:08:52;;;;;;;2.85;1.17;;;15.60;99.40;;;;;;942915;146;27379;-76
2022/10/25 01:11:18;;;;;;;0.95;0.70;;;15.60;99.30;;;;;;950377;146;27379;-77
2022/10/25 01:13:45;;;;;;;3.45;1.22;;;15.60;99.20;;;;;;933633;149;27369;-77
2022/10/25 01:16:32;;;;;;;1.17;0.78;;;15.60;99.10;;;;;;933466;149;27358;-77
2022/10/25 01:19:37;;;;;;;2.08;0.85;;;15.60;99.20;;;;;;938621;147;27383;-77
2022/10/25 01:22:06;;;;;;;1.17;0.90;;;15.60;99.00;;;;;;947458;147;27341;-77
2022/10/25 01:24:41;;;;;;;2.95;1.15;;;15.60;98.90;;;;;;947450;147;27481;-77
2022/10/25 01:27:20;;;;;;;1.82;1.10;;;15.50;98.90;;;;;;947069;147;27472;-77
2022/10/25 01:29:52;;;;;;;3.87;1.20;;;15.50;98.90;;;;;;947676;147;27352;-76
2022/10/25 01:32:41;;;;;;;1.00;0.80;;;15.50;98.80;;;;;;947621;147;27289;-77
2022/10/25 01:35:28;;;;;;;1.67;1.10;;;15.40;98.90;;;;;;946328;147;27329;-77
2022/10/25 01:38:16;;;;;;;2.35;1.00;;;15.40;98.80;;;;;;947373;147;27347;-76
2022/10/25 01:40:54;;;;;;;1.62;0.82;;;15.30;98.90;;;;;;947802;147;27474;-78
2022/10/25 01:43:55;;;;;;;0.98;0.82;;;15.30;99.00;;;;;;944328;147;27466;-78
2022/10/25 01:46:52;;;;;;;1.55;1.05;;;15.20;99.10;;;;;;946155;147;27822;-78
2022/10/25 01:49:24;;;;;;;1.62;0.95;;;15.20;99.20;;;;;;947648;147;27395;-76
2022/10/25 01:51:50;;;;;;;3.70;1.03;;;15.10;99.30;;;;;;917787;147;27337;-76
2022/10/25 01:54:20;;;;;;;2.85;0.80;;;15.10;99.60;;;;;;947014;147;27410;-77
2022/10/25 01:56:55;;;;;;;6.85;1.65;;;15.00;99.80;;;;;;946129;147;27330;-77
2022/10/25 01:59:40;;;;;;;2.62;1.07;;;15.00;99.90;;;;;;949107;147;27348;-77
2022/10/25 02:02:07;;;;;;;2.90;1.52;;;15.00;99.90;;;;;;948165;147;27369;-78
2022/10/25 02:04:42;;;;;;;1.85;1.10;;;15.00;99.90;;;;;;946947;147;27875;-77
2022/10/25 02:07:11;;;;;;;2.57;1.00;;;15.00;99.90;;;;;;947171;147;27363;-78
2022/10/25 02:09:43;;;;;;;0.98;0.90;;;14.90;99.90;;;;;;945554;147;27329;-77
2022/10/25 02:12:10;;;;;;;3.35;1.17;;;14.90;99.90;;;;;;948548;147;27354;-76
2022/10/25 02:14:40;;;;;;;0.72;0.72;;;14.90;99.90;;;;;;946005;147;27355;-77
2022/10/25 02:17:18;;;;;;;3.02;1.05;;;14.90;99.90;;;;;;946799;147;27914;-77
2022/10/25 02:19:50;;;;;;;2.98;0.80;;;14.90;99.90;;;;;;949722;146;27359;-77
2022/10/25 02:22:17;;;;;;;3.50;1.10;;;14.90;99.90;;;;;;952503;146;27370;-77
2022/10/25 02:24:43;;;;;;;1.60;1.00;;;14.80;99.90;;;;;;951759;146;27382;-77
2022/10/25 02:27:10;;;;;;;2.75;1.00;;;14.80;99.90;;;;;;952843;146;27448;-77
2022/10/25 02:29:37;;;;;;;2.08;0.82;;;14.80;99.90;;;;;;951059;146;27425;-76
2022/10/25 02:32:03;;;;;;;1.77;0.85;;;14.80;99.90;;;;;;933551;149;27493;-77
2022/10/25 02:34:30;;;;;;;2.72;1.12;;;14.80;99.90;;;;;;950914;149;27394;-76
2022/10/25 02:36:56;;;;;;;2.17;0.80;;;14.70;99.90;;;;;;933519;149;27394;-76
2022/10/25 02:39:23;;;;;;;1.60;0.80;;;14.70;99.90;;;;;;940435;150;27414;-77
2022/10/25 02:41:53;;;;;;;1.57;0.95;;;14.70;99.90;;;;;;940470;148;27348;-76
2022/10/25 02:44:16;;;;;;;3.62;1.50;;;14.60;99.90;;;;;;941853;148;27500;-76
2022/10/25 02:46:43;;;;;;;1.70;0.82;;;14.60;99.90;;;;;;942149;148;27956;-78
2022/10/25 02:49:09;;;;;;;1.17;0.72;;;14.60;99.90;;;;;;942313;149;27437;-76
2022/10/25 02:51:36;;;;;;;3.17;1.30;;;14.50;99.90;;;;;;936348;149;27331;-78
2022/10/25 02:54:02;;;;;;;3.55;1.00;;;14.50;99.90;;;;;;951351;146;27352;-76
2022/10/25 02:56:29;;;;;;;2.03;0.90;;;14.40;99.90;;;;;;951506;146;27412;-77
2022/10/25 02:58:56;;;;;;;2.77;1.10;;;14.40;99.90;;;;;;949424;146;27313;-78
2022/10/25 03:01:22;;;;;;;2.40;0.90;;;14.30;99.90;;;;;;953383;146;27371;-76
2022/10/25 03:03:49;;;;;;;0.98;0.80;;;14.30;99.90;;;;;;950734;146;27461;-76
2022/10/25 03:06:15;;;;;;;6.62;1.72;;;14.30;99.90;;;;;;951832;146;27414;-76
2022/10/25 03:08:42;;;;;;;1.70;0.90;;;14.20;99.90;;;;;;951694;146;27360;-76
2022/10/25 03:11:09;;;;;;;3.22;1.10;;;14.20;99.90;;;;;;950556;146;27355;-77
2022/10/25 03:13:35;;;;;;;3.47;1.17;;;14.10;99.90;;;;;;951425;146;27814;-76
2022/10/25 03:16:02;;;;;;;2.77;1.02;;;14.10;99.90;;;;;;931344;149;27374;-77
2022/10/25 03:18:28;;;;;;;1.83;1.03;;;14.00;99.90;;;;;;929508;150;27332;-76
2022/10/25 03:20:58;;;;;;;2.73;0.80;;;14.00;99.90;;;;;;932212;150;27389;-78
2022/10/25 03:23:25;;;;;;;1.63;1.03;;;14.00;99.90;;;;;;951610;146;27348;-76
2022/10/25 03:25:51;;;;;;;1.90;1.02;;;13.90;99.90;;;;;;952457;146;27338;-78
2022/10/25 03:28:18;;;;;;;1.73;0.90;;;13.90;99.90;;;;;;946188;149;27447;-76
2022/10/25 03:30:44;;;;;;;3.65;1.10;;;13.90;99.90;;;;;;954266;146;27313;-77
2022/10/25 03:33:11;;;;;;;1.27;1.00;;;13.80;99.90;;;;;;953518;146;27398;-75
2022/10/25 03:35:38;;;;;;;4.53;1.13;;;13.80;99.90;;;;;;952071;146;27274;-78
2022/10/25 03:38:04;;;;;;;2.55;1.30;;;13.70;99.90;;;;;;953315;146;27419;-76
2022/10/25 03:40:31;;;;;;;2.10;1.00;;;13.70;99.90;;;;;;951382;146;27361;-76
2022/10/25 03:42:57;;;;;;;1.35;0.85;;;13.70;99.90;;;;;;936828;149;27471;-76
2022/10/25 03:45:24;;;;;;;1.90;0.70;;;13.60;99.90;;;;;;951080;146;27433;-77
2022/10/25 03:47:51;;;;;;;2.20;0.90;;;13.60;99.90;;;;;;953407;146;27303;-76
2022/10/25 03:50:17;;;;;;;2.13;1.33;;;13.60;99.90;;;;;;954323;146;27368;-76
2022/10/25 03:52:44;;;;;;;2.00;1.20;;;13.50;99.90;;;;;;954974;146;27453;-78
2022/10/25 03:55:10;;;;;;;1.50;1.17;;;13.50;99.90;;;;;;955044;146;27372;-75
2022/10/25 03:57:37;;;;;;;4.83;1.73;;;13.40;99.90;;;;;;951828;146;27348;-76
2022/10/25 04:00:04;;;;;;;1.83;1.23;;;13.40;99.90;;;;;;951550;146;27339;-76
2022/10/25 04:02:30;;;;;;;3.67;1.27;;;13.40;99.90;;;;;;954034;146;27366;-77
2022/10/25 04:04:57;;;;;;;1.90;0.93;;;13.30;99.90;;;;;;953751;146;27398;-78
2022/10/25 04:07:23;;;;;;;5.97;1.50;;;13.30;99.90;;;;;;953262;146;27691;-75
2022/10/25 04:09:50;;;;;;;2.40;1.30;;;13.20;99.90;;;;;;951509;146;28305;-76
2022/10/25 04:12:16;;;;;;;1.90;1.10;;;13.20;99.90;;;;;;951610;146;27348;-75
2022/10/25 04:14:43;;;;;;;2.40;1.10;;;13.20;99.90;;;;;;938050;151;27848;-77
2022/10/25 04:17:10;;;;;;;3.37;1.10;;;13.10;99.90;;;;;;935505;149;27452;-76
2022/10/25 04:19:36;;;;;;;2.57;1.23;;;13.10;99.90;;;;;;952296;146;27447;-76
2022/10/25 04:22:03;;;;;;;2.77;0.87;;;13.10;99.90;;;;;;935450;148;27474;-76
2022/10/25 04:24:29;;;;;;;3.20;1.20;;;13.10;99.90;;;;;;933314;148;27334;-76
2022/10/25 04:26:56;;;;;;;2.43;1.00;;;13.10;99.90;;;;;;932096;148;27402;-76
2022/10/25 04:29:23;;;;;;;11.93;2.30;;;13.00;99.90;;;;;;932490;148;27314;-76
2022/10/25 04:31:49;;;;;;;1.27;1.10;;;13.00;99.90;;;;;;933362;148;27378;-77
2022/10/25 04:34:16;;;;;;;2.70;1.27;;;13.00;99.90;;;;;;933612;148;27349;-76
2022/10/25 04:36:42;;;;;;;3.57;1.20;;;13.00;99.90;;;;;;934539;148;27379;-76
2022/10/25 04:39:09;;;;;;;2.07;1.10;;;13.00;99.90;;;;;;935476;148;27374;-77
2022/10/25 04:41:35;;;;;;;3.87;1.40;;;13.00;99.90;;;;;;934227;148;27696;-76
2022/10/25 04:44:02;;;;;;;2.70;1.17;;;13.00;99.90;;;;;;933354;148;27523;-78
2022/10/25 04:46:29;;;;;;;2.23;1.23;;;13.00;99.90;;;;;;941526;147;27372;-75
2022/10/25 04:48:56;;;;;;;2.97;1.10;;;13.00;99.90;;;;;;918363;150;27381;-76
2022/10/25 04:51:22;;;;;;;3.50;1.43;;;13.00;99.90;;;;;;934662;148;27517;-76
2022/10/25 04:53:48;;;;;;;1.93;1.20;;;13.00;99.90;;;;;;934337;148;27391;-76
2022/10/25 04:56:15;;;;;;;2.13;1.20;;;13.00;99.90;;;;;;934430;148;27397;-77
2022/10/25 04:58:42;;;;;;;3.57;1.17;;;13.00;99.90;;;;;;934780;148;28003;-75
2022/10/25 05:01:08;;;;;;;2.57;1.30;;;13.00;99.90;;;;;;932597;148;27369;-76
2022/10/25 05:03:35;;;;;;;3.52;1.30;;;13.00;99.90;;;;;;935912;148;27354;-76
2022/10/25 05:06:10;;;;;;;1.77;1.23;;;13.00;99.90;;;;;;934922;148;27318;-76
2022/10/25 05:08:39;;;;;;;2.90;1.30;;;13.00;99.90;;;;;;934578;148;27316;-76
2022/10/25 05:11:06;;;;;;;2.80;1.10;;;13.10;99.90;;;;;;935113;148;27451;-76
2022/10/25 05:13:32;;;;;;;3.27;1.30;;;13.10;99.90;;;;;;934950;148;27304;-76
2022/10/25 05:16:00;;;;;;;2.17;1.50;;;13.10;99.90;;;;;;932431;148;27381;-76
2022/10/25 05:18:26;;;;;;;4.10;1.40;;;13.10;99.90;;;;;;931079;148;27513;-76
2022/10/25 05:20:55;;;;;;;2.87;1.40;;;13.10;99.90;;;;;;936091;146;27322;-78
2022/10/25 05:23:21;;;;;;;2.60;1.40;;;13.20;99.90;;;;;;951515;146;27319;-76
2022/10/25 05:25:48;;;;;;;2.27;1.50;;;13.20;99.90;;;;;;950859;146;27955;-75
2022/10/25 05:28:14;;;;;;;1.30;1.20;;;13.30;99.90;;;;;;948940;146;27457;-76
2022/10/25 05:30:41;;;;;;;2.50;1.40;;;13.30;99.90;;;;;;951815;146;27465;-76
2022/10/25 05:33:08;;;;;;;2.20;1.35;;;13.40;99.90;;;;;;931495;149;27476;-77
2022/10/25 05:35:34;;;;;;;1.90;1.33;;;13.40;99.90;;;;;;930427;150;28612;-76
2022/10/25 05:38:01;;;;;;;4.20;1.80;;;13.40;99.90;;;;;;931273;149;27645;-78
2022/10/25 05:40:27;;;;;;;3.63;1.30;;;13.50;99.90;;;;;;931937;149;27341;-76
2022/10/25 05:42:54;;;;;;;4.73;1.80;;;13.50;99.90;;;;;;931628;149;27416;-77
2022/10/25 05:45:21;;;;;;;4.90;1.30;;;13.50;99.90;;;;;;931426;150;27425;-76
2022/10/25 05:47:47;;;;;;;3.43;1.60;;;13.60;99.90;;;;;;929727;149;27401;-78
2022/10/25 05:50:14;;;;;;;2.90;1.63;;;13.60;99.90;;;;;;931576;149;27358;-76
2022/10/25 05:52:44;;;;;;;4.35;1.67;;;13.70;99.90;;;;;;931335;149;27309;-76
2022/10/25 05:55:10;;;;;;;3.33;1.75;;;13.70;99.90;;;;;;930845;149;27351;-76
2022/10/25 05:57:37;;;;;;;5.37;1.75;;;13.70;99.90;;;;;;928986;149;27370;-78
2022/10/25 06:00:03;;;;;;;3.30;1.60;;;13.80;99.90;;;;;;932239;149;27467;-76
2022/10/25 06:02:30;;;;;;;3.43;1.80;;;13.80;99.90;;;;;;930142;150;27382;-76
2022/10/25 06:04:56;;;;;;;3.17;1.70;;;13.80;99.90;;;;;;931626;149;27327;-76
2022/10/25 06:07:23;;;;;;;1.90;1.53;;;13.80;99.90;;;;;;932195;149;27337;-78
2022/10/25 06:09:50;;;;;;;1.60;1.50;;;13.90;99.90;;;;;;931536;149;27370;-76
2022/10/25 06:12:16;;;;;;;3.23;1.83;;;13.90;99.90;;;;;;931784;149;27390;-79
2022/10/25 06:14:43;;;;;;;1.80;1.70;;;13.90;99.90;;;;;;931794;149;27390;-76
2022/10/25 06:17:09;;;;;;;1.87;1.50;;;14.00;99.90;;;;;;931393;150;27322;-76
2022/10/25 06:19:36;;;;;;;5.43;1.70;;;14.00;99.90;;;;;;931652;149;27432;-77
2022/10/25 06:22:03;;;;;;;5.15;1.65;;;14.10;99.90;;;;;;927972;149;27439;-78
2022/10/25 06:24:29;;;;;;;3.30;1.83;;;14.10;99.90;;;;;;918379;151;27387;-78
2022/10/25 06:26:56;;;;;;;4.30;1.60;;;14.20;99.90;;;;;;916366;151;27487;-76
2022/10/25 06:29:22;;;;;;;5.22;1.87;;;14.20;99.90;;;;;;934309;149;28572;-76
2022/10/25 06:31:49;;;;;;;4.03;1.62;;;14.30;99.90;;;;;;932517;149;28398;-76
2022/10/25 06:34:16;;;;;;;3.70;1.90;;;14.40;99.90;;;;;;933729;149;27319;-76
2022/10/25 06:36:42;;;;;;;2.60;1.50;;;14.50;99.90;;;;;;932372;150;27445;-79
2022/10/25 06:39:09;;;;;;;3.87;1.50;;;14.50;99.90;;;;;;932910;149;27373;-78
2022/10/25 06:41:35;;;;;;;3.87;1.60;;;14.60;99.90;;;;;;933690;149;27785;-77
2022/10/25 06:44:02;;;;;;;2.00;1.47;;;14.80;99.90;;;;;;931779;149;27323;-76
2022/10/25 06:46:29;;;;;;;1.65;1.22;;;14.90;99.90;;;;;;933134;149;27311;-76
2022/10/25 06:48:55;;;;;;;1.75;1.30;;;15.00;99.90;;;;;;932642;149;27351;-77
2022/10/25 06:51:22;;;;;;;4.45;1.70;;;15.10;99.90;;;;;;931340;149;27480;-79
2022/10/25 06:53:54;;;;;;;2.62;1.60;;;15.20;99.90;;;;;;934825;149;27475;-76
2022/10/25 06:56:21;;;;;;;3.27;1.27;;;15.30;99.90;;;;;;931330;149;27315;-76
2022/10/25 06:58:47;;;;;;;4.25;1.50;;;15.40;99.90;;;;;;931142;149;27470;-76
2022/10/25 07:01:14;;;;;;;3.95;1.37;;;15.50;99.90;;;;;;931776;149;27787;-76
2022/10/25 07:03:40;;;;;;;1.77;1.40;;;15.60;99.90;;;;;;933517;149;27440;-79
2022/10/25 07:06:10;;;;;;;2.12;1.42;;;15.60;99.90;;;;;;933727;149;27469;-76
2022/10/25 07:08:36;;;;;;;3.15;1.57;;;15.70;99.90;;;;;;931451;149;27416;-77
2022/10/25 07:11:03;;;;;;;2.35;1.50;;;15.80;99.90;;;;;;931628;149;27302;-76
2022/10/25 07:13:29;;;;;;;2.65;1.52;;;15.90;99.90;;;;;;932343;149;27425;-77
2022/10/25 07:16:02;;;;;;;4.33;1.62;;;15.90;99.90;;;;;;933322;149;27451;-76
2022/10/25 07:18:29;;;;;;;3.67;1.67;;;16.00;99.90;;;;;;933307;149;27324;-75
2022/10/25 07:21:04;;;;;;;2.80;1.77;;;16.10;99.90;;;;;;933249;149;27403;-76
2022/10/25 07:23:31;;;;;;;2.65;1.60;;;16.10;99.90;;;;;;924564;149;27346;-75
2022/10/25 07:25:57;;;;;;;1.92;1.70;;;16.10;99.90;;;;;;916407;154;27345;-76
2022/10/25 07:28:24;;;;;;;3.27;1.75;;;16.20;99.90;;;;;;935017;149;27693;-76
2022/10/25 07:30:50;;;;;;;5.22;1.77;;;16.30;99.90;;;;;;936573;151;27333;-76
2022/10/25 07:33:17;;;;;;;3.50;1.85;;;16.30;99.90;;;;;;934091;151;27350;-75
2022/10/25 07:35:46;;;;;;;5.35;2.30;;;16.40;99.90;;;;;;937498;149;27341;-75
2022/10/25 07:38:13;;;;;;;5.00;1.90;;;16.50;99.90;;;;;;935688;149;27423;-78
2022/10/25 07:40:39;;;;;;;4.78;1.90;;;16.60;99.90;;;;;;934305;149;27470;-75
2022/10/25 07:43:06;;;;;;;3.87;2.10;;;16.70;99.90;;;;;;934113;149;27405;-75
2022/10/25 07:45:32;;;;;;;2.62;1.70;;;16.80;99.90;;;;;;936754;149;27398;-76
2022/10/25 07:47:59;;;;;;;3.35;1.70;;;16.90;99.90;;;;;;934858;151;27375;-76
2022/10/25 07:50:26;;;;;;;1.52;1.40;;;16.90;99.90;;;;;;935394;149;27359;-77
2022/10/25 07:52:54;;;;;;;3.17;1.85;;;17.00;99.90;;;;;;935761;149;27454;-75
2022/10/25 07:55:19;;;;;;;5.10;2.20;;;17.00;99.90;;;;;;934576;149;27340;-76
2022/10/25 07:57:45;;;;;;;2.85;1.55;;;17.10;99.90;;;;;;920086;151;27432;-75
2022/10/25 08:00:12;;;;;;;2.27;1.98;;;17.10;99.90;;;;;;936161;149;27358;-75
2022/10/25 08:02:39;;;;;;;3.37;1.70;;;17.20;99.90;;;;;;935366;149;27404;-75
2022/10/25 08:05:05;;;;;;;3.35;1.77;;;17.30;99.90;;;;;;936647;149;27360;-77
2022/10/25 08:07:32;;;;;;;3.25;1.75;;;17.40;99.90;;;;;;935268;149;27325;-75
2022/10/25 08:09:58;;;;;;;4.67;1.82;;;17.50;99.90;;;;;;936713;149;27370;-75
2022/10/25 08:12:25;;;;;;;3.05;1.60;;;17.50;99.90;;;;;;936708;151;27426;-75
2022/10/25 08:14:52;;;;;;;3.55;1.80;;;17.60;99.90;;;;;;937829;149;27403;-75
2022/10/25 08:17:18;;;;;;;2.15;1.62;;;17.70;99.90;;;;;;936408;151;27323;-78
2022/10/25 08:19:45;;;;;;;2.02;1.70;;;17.70;99.90;;;;;;933675;149;27507;-75
2022/10/25 08:22:11;;;;;;;1.52;1.42;;;17.80;99.90;;;;;;919567;154;27368;-75
2022/10/25 08:24:38;;;;;;;2.80;1.62;;;17.90;99.90;;;;;;916644;150;27483;-75
2022/10/25 08:27:04;;;;;;;4.35;1.50;;;17.90;99.90;;;;;;932706;149;27392;-74
2022/10/25 08:29:31;;;;;;;4.40;1.70;;;18.00;99.90;;;;;;936336;148;27656;-77
2022/10/25 08:31:58;;;;;;;3.42;1.80;;;18.10;99.90;;;;;;933073;148;27435;-78
2022/10/25 08:34:24;;;;;;;3.55;1.75;;;18.20;99.90;;;;;;934621;148;27353;-75
2022/10/25 08:36:51;;;;;;;2.77;1.90;;;18.20;99.90;;;;;;933866;148;27290;-75
2022/10/25 08:39:17;;;;;;;3.60;1.42;;;18.30;99.90;;;;;;933165;148;27371;-75
2022/10/25 08:41:50;;;;;;;4.35;2.20;;;18.40;99.90;;;;;;932096;148;27454;-75
2022/10/25 08:44:20;;;;;;;2.30;1.40;;;18.50;99.90;;;;;;932061;148;27486;-75
2022/10/25 08:46:55;;;;;;;1.77;1.35;;;18.60;99.90;;;;;;933938;148;27386;-75
2022/10/25 08:49:39;;;;;;;3.95;1.80;;;18.70;99.90;;;;;;933404;148;27843;-75
2022/10/25 08:52:06;;;;;;;3.42;1.50;;;18.80;99.90;;;;;;934861;148;27864;-77
2022/10/25 08:54:35;;;;;;;1.82;1.47;;;18.90;99.90;;;;;;933686;148;27331;-78
2022/10/25 08:57:11;;;;;;;4.87;1.62;;;18.90;99.90;;;;;;932909;148;27483;-74
2022/10/25 08:59:37;;;;;;;2.65;1.82;;;19.00;99.90;;;;;;931093;149;27322;-75
2022/10/25 09:02:04;;;;;;;2.90;1.67;;;19.10;99.90;;;;;;934411;149;27444;-76
2022/10/25 09:04:30;;;;;;;2.62;1.57;;;19.20;99.90;;;;;;930974;149;27345;-77
2022/10/25 09:07:12;;;;;;;3.60;1.82;;;19.30;99.90;;;;;;931854;149;27387;-75
2022/10/25 09:10:06;;;;;;;2.17;1.77;;;19.40;99.90;;;;;;931086;149;27793;-76
2022/10/25 09:12:44;;;;;;;3.47;1.60;;;19.50;99.90;;;;;;931434;149;27378;-75
2022/10/25 09:15:19;;;;;;;2.58;1.45;;;19.70;99.90;;;;;;930846;149;27411;-75
2022/10/25 09:17:49;;;;;;;3.83;1.45;;;19.90;99.40;;;;;;931895;149;27335;-75
2022/10/25 09:20:24;;;;;;;1.50;1.40;;;20.00;98.60;;;;;;932020;149;27361;-75
2022/10/25 09:22:54;;;;;;;2.08;1.50;;;20.10;98.00;;;;;;932979;149;27336;-75
2022/10/25 09:25:29;;;;;;;3.90;1.50;;;20.20;97.50;;;;;;931210;149;27377;-75
2022/10/25 09:27:59;;;;;;;3.02;1.92;;;20.30;96.70;;;;;;931704;150;27319;-75
2022/10/25 09:30:25;;;;;;;4.45;1.80;;;20.40;96.10;;;;;;932207;149;27440;-77
2022/10/25 09:32:52;;;;;;;6.22;2.10;;;20.40;95.40;;;;;;932564;149;27388;-76
2022/10/25 09:35:28;;;;;;;1.85;1.40;;;20.50;95.10;;;;;;934054;149;27357;-78
2022/10/25 09:37:57;;;;;;;2.70;1.50;;;20.50;94.80;;;;;;920674;149;27307;-76
2022/10/25 09:40:27;;;;;;;3.22;1.52;;;20.60;94.30;;;;;;933392;149;27320;-75
2022/10/25 09:42:53;;;;;;;1.72;1.35;;;20.60;94.00;;;;;;933338;149;27359;-76
2022/10/25 09:45:23;;;;;;;4.42;1.62;;;20.60;93.80;;;;;;931328;149;27559;-76
2022/10/25 09:47:55;;;;;;;2.70;1.42;;;20.60;93.80;;;;;;932879;149;27321;-75
2022/10/25 09:50:21;;;;;;;4.75;2.33;;;20.70;93.70;;;;;;931919;149;27447;-76
2022/10/25 09:52:48;;;;;;;1.92;1.52;;;20.70;93.60;;;;;;931617;149;27315;-76
2022/10/25 09:55:20;;;;;;;2.95;1.62;;;20.80;93.50;;;;;;931930;149;27374;-75
2022/10/25 09:57:47;;;;;;;3.47;1.50;;;20.80;93.20;;;;;;930845;149;27360;-75
2022/10/25 10:00:13;;;;;;;2.17;1.47;;;20.90;92.60;;;;;;932649;149;27438;-76
2022/10/25 10:02:40;;;;;;;2.27;1.37;;;20.90;92.50;;;;;;931939;149;27424;-75
2022/10/25 10:05:12;;;;;;;2.77;1.60;;;21.00;92.30;;;;;;931410;149;27331;-76
2022/10/25 10:07:39;;;;;;;2.45;1.15;;;21.00;92.10;;;;;;934204;149;27358;-75
2022/10/25 10:10:06;;;;;;;1.30;1.10;;;21.10;91.90;;;;;;931390;149;27923;-77
2022/10/25 10:12:32;;;;;;;3.90;1.55;;;21.10;91.50;;;;;;933278;149;27405;-74
2022/10/25 10:15:05;;;;;;;5.08;1.22;;;21.20;91.40;;;;;;933916;149;27346;-75
2022/10/25 10:17:31;;;;;;;1.95;1.12;;;21.20;91.30;;;;;;932334;149;27346;-78
2022/10/25 10:20:07;;;;;;;2.77;1.35;;;21.30;91.10;;;;;;934041;149;27474;-75
2022/10/25 10:22:33;;;;;;;3.60;1.40;;;21.30;90.80;;;;;;932172;149;27287;-76
2022/10/25 10:25:00;;;;;;;3.70;1.37;;;21.30;90.40;;;;;;927430;149;27481;-75
2022/10/25 10:27:26;;;;;;;1.50;1.00;;;21.40;90.50;;;;;;919019;154;27338;-76
2022/10/25 10:29:58;;;;;;;3.77;2.12;;;21.40;90.20;;;;;;934839;151;27335;-78
2022/10/25 10:32:31;;;;;;;1.95;1.10;;;21.40;90.10;;;;;;934636;149;27406;-76
2022/10/25 10:34:57;;;;;;;3.00;1.70;;;21.50;90.30;;;;;;934353;148;27309;-75
2022/10/25 10:37:27;;;;;;;2.10;1.25;;;21.60;90.20;;;;;;936659;148;27406;-75
2022/10/25 10:39:54;;;;;;;1.55;1.07;;;21.70;89.80;;;;;;936240;151;27367;-78
2022/10/25 10:42:20;;;;;;;2.22;1.25;;;21.80;89.20;;;;;;934141;151;27358;-75
2022/10/25 10:45:07;;;;;;;1.82;1.27;;;21.80;88.80;;;;;;933542;148;28156;-75
2022/10/25 10:47:31;;;;;;;5.95;1.45;;;21.90;88.20;;;;;;934168;148;27350;-75
2022/10/25 10:49:58;;;;;;;2.17;1.20;;;22.00;87.90;;;;;;935690;151;27287;-75
2022/10/25 10:52:30;;;;;;;1.67;1.00;;;22.10;87.50;;;;;;934786;149;27263;-78
2022/10/25 10:54:57;;;;;;;3.58;1.20;;;22.20;86.40;;;;;;921691;151;27368;-76
2022/10/25 10:57:29;;;;;;;1.77;1.02;;;22.30;86.40;;;;;;920745;153;27427;-75
2022/10/25 10:59:56;;;;;;;2.50;1.10;;;22.40;86.20;;;;;;917351;154;27384;-75
2022/10/25 11:02:40;;;;;;;2.72;1.05;;;22.50;85.00;;;;;;935382;151;27417;-76
2022/10/25 11:05:19;;;;;;;2.55;1.02;;;22.60;84.50;;;;;;933801;149;27347;-77
2022/10/25 11:07:46;;;;;;;2.35;1.15;;;22.70;84.00;;;;;;934166;151;27385;-76
2022/10/25 11:10:15;;;;;;;1.90;1.05;;;22.90;82.90;;;;;;934935;149;28098;-75
2022/10/25 11:12:41;;;;;;;1.17;0.90;;;22.90;82.20;;;;;;933845;149;27370;-78
2022/10/25 11:15:11;;;;;;;1.98;1.25;;;23.00;80.80;;;;;;935728;148;27391;-76
2022/10/25 11:17:38;;;;;;;1.52;1.07;;;23.00;79.70;;;;;;936320;148;27343;-77
2022/10/25 11:20:13;;;;;;;3.42;1.50;;;23.00;78.90;;;;;;934098;148;27450;-75
2022/10/25 11:22:46;;;;;;;2.12;1.17;;;22.90;78.50;;;;;;927570;151;27362;-75
2022/10/25 11:25:13;;;;;;;2.10;0.68;;;22.80;78.70;;;;;;936301;148;27454;-75
2022/10/25 11:28:03;;;;;;;2.72;1.07;;;22.80;78.80;;;;;;934672;148;27399;-75
2022/10/25 11:30:57;;;;;;;3.15;1.20;;;22.70;78.90;;;;;;935365;148;27244;-77
2022/10/25 11:33:24;;;;;;;2.77;1.10;;;22.70;79.00;;;;;;936853;148;27442;-78
2022/10/25 11:36:14;;;;;;;1.55;0.70;;;22.60;78.90;;;;;;933609;148;27366;-76
2022/10/25 11:38:53;;;;;;;2.37;0.93;;;22.60;78.30;;;;;;935523;148;28264;-75
2022/10/25 11:41:22;;;;;;;4.00;0.93;;;22.60;77.80;;;;;;934121;148;27403;-75
2022/10/25 11:44:04;;;;;;;0.93;0.78;;;22.60;77.70;;;;;;933757;148;27752;-76
2022/10/25 11:46:30;;;;;;;0.80;0.80;;;22.60;77.90;;;;;;932970;148;27355;-75
2022/10/25 11:49:31;;;;;;;2.42;1.00;;;22.60;77.80;;;;;;932859;148;27363;-77
2022/10/25 11:52:21;;;;;;;1.22;0.80;;;22.50;76.90;;;;;;934016;148;27461;-76
2022/10/25 11:55:02;;;;;;;1.67;1.10;;;22.40;76.60;;;;;;932806;148;27310;-75
2022/10/25 11:57:44;;;;;;;1.57;1.07;;;22.40;76.20;;;;;;933271;148;27354;-76
2022/10/25 12:00:13;;;;;;;1.10;0.75;;;22.30;76.00;;;;;;932838;148;27287;-76
2022/10/25 12:02:46;;;;;;;3.47;0.93;;;22.30;76.10;;;;;;932956;148;27346;-75
2022/10/25 12:05:21;;;;;;;0.80;0.80;;;22.20;76.20;;;;;;935149;148;27426;-75
2022/10/25 12:07:53;;;;;;;1.95;1.20;;;22.20;76.00;;;;;;935047;148;27318;-75
2022/10/25 12:10:22;;;;;;;1.72;1.00;;;22.20;76.00;;;;;;934699;148;27360;-75
2022/10/25 12:12:49;;;;;;;1.25;0.80;;;22.10;76.30;;;;;;935510;148;28529;-75
2022/10/25 12:15:19;;;;;;;2.42;1.20;;;22.10;75.90;;;;;;931930;148;27634;-75
2022/10/25 12:17:45;;;;;;;5.10;1.30;;;22.10;75.60;;;;;;934368;148;27251;-75
2022/10/25 12:20:12;;;;;;;1.62;1.10;;;22.10;76.00;;;;;;933941;148;27893;-77
2022/10/25 12:22:44;;;;;;;1.60;0.80;;;22.10;75.90;;;;;;932050;148;27383;-75
2022/10/25 12:25:26;;;;;;;4.20;1.10;;;22.00;75.70;;;;;;931803;148;27301;-75
2022/10/25 12:27:59;;;;;;;0.85;0.82;;;22.00;75.80;;;;;;935453;148;27390;-75
2022/10/25 12:30:24;;;;;;;0.90;0.90;;;22.00;76.30;;;;;;932693;148;27447;-77
2022/10/25 12:32:51;;;;;;;2.02;1.07;;;22.00;76.40;;;;;;933571;148;27395;-76
2022/10/25 12:35:23;;;;;;;1.75;0.95;;;22.00;75.70;;;;;;933783;148;27358;-75
2022/10/25 12:37:50;;;;;;;1.20;1.10;;;22.00;75.80;;;;;;935156;148;27409;-75
2022/10/25 12:40:16;;;;;;;1.85;0.70;;;22.00;75.70;;;;;;932386;148;27327;-76
2022/10/25 12:42:51;;;;;;;1.70;0.88;;;22.00;75.60;;;;;;932921;148;27442;-78
2022/10/25 12:45:30;;;;;;;1.17;0.78;;;22.00;75.50;;;;;;935300;148;28638;-75
2022/10/25 12:48:14;;;;;;;2.65;1.25;;;22.00;75.80;;;;;;924988;151;27420;-75
2022/10/25 12:50:50;;;;;;;1.62;0.90;;;22.00;75.60;;;;;;933523;148;27876;-76
2022/10/25 12:53:20;;;;;;;1.55;0.90;;;22.00;75.70;;;;;;933300;148;27332;-76
2022/10/25 12:56:01;;;;;;;1.25;1.00;;;22.00;75.50;;;;;;935815;148;27388;-77
2022/10/25 12:58:43;;;;;;;1.82;1.30;;;22.10;75.50;;;;;;933693;148;27726;-76
2022/10/25 13:01:12;;;;;;;1.65;1.00;;;22.10;75.80;;;;;;934920;148;27370;-76